createdAt,value
2023-02-22T00:01:23.089Z,84.19
2023-02-22T00:03:52.806Z,83.97
2023-02-22T00:06:25.030Z,84.48
2023-02-22T00:08:53.924Z,84.47
2023-02-22T00:11:23.038Z,83.98
2023-02-22T00:13:51.776Z,84.34
2023-02-22T04:57:43.311Z,85.71
2023-02-22T05:00:17.500Z,85.34
2023-02-22T05:02:46.063Z,85.38
2023-02-22T05:05:15.996Z,85.71
2023-02-22T05:07:45.332Z,85.66
2023-02-22T05:10:13.102Z,85.41
2023-02-22T05:12:41.126Z,85.52
2023-02-22T05:15:10.690Z,85.60
2023-02-22T05:17:38.465Z,85.50
2023-02-22T05:20:08.565Z,85.57
2023-02-22T05:22:36.653Z,85.91
2023-02-22T05:25:06.448Z,85.63
2023-02-22T05:27:34.197Z,85.44
2023-02-22T05:30:01.972Z,85.78
2023-02-22T05:32:29.707Z,85.41
2023-02-22T05:34:57.544Z,85.57
2023-02-22T05:37:25.471Z,85.89
2023-02-22T05:39:53.214Z,85.71
2023-02-22T05:42:23.474Z,86.01
2023-02-22T05:44:51.284Z,85.67
2023-02-22T05:47:19.051Z,85.49
2023-02-22T05:49:46.808Z,85.48
2023-02-22T05:52:15.061Z,85.84
2023-02-22T05:54:42.827Z,85.67
2023-02-22T05:57:10.681Z,85.83
2023-02-22T05:59:39.758Z,86.06
2023-02-22T06:02:08.528Z,85.73
2023-02-22T06:04:36.359Z,85.44
2023-02-22T06:07:04.253Z,85.86
2023-02-22T06:09:31.965Z,85.64
2023-02-22T06:11:59.773Z,85.89
2023-02-22T06:14:27.613Z,85.83
2023-02-22T06:16:58.276Z,85.82
2023-02-22T06:19:26.221Z,85.60
2023-02-22T06:21:56.393Z,85.70
2023-02-22T06:24:24.594Z,86.01
2023-02-22T06:26:56.875Z,86.09
2023-02-22T06:29:24.965Z,85.79
2023-02-22T06:31:52.915Z,85.92
2023-02-22T06:34:22.841Z,85.84
2023-02-22T06:36:50.734Z,85.72
2023-02-22T06:39:19.751Z,85.79
2023-02-22T06:41:50.393Z,86.10
2023-02-22T06:44:18.209Z,86.11
2023-02-22T06:46:50.819Z,85.92
2023-02-22T06:49:19.296Z,85.85
2023-02-22T06:51:49.077Z,85.82
2023-02-22T06:54:16.915Z,85.94
2023-02-22T06:56:44.837Z,85.55
2023-02-22T06:59:12.642Z,85.71
2023-02-22T07:01:42.205Z,86.23
2023-02-22T07:04:11.544Z,86.20
2023-02-22T07:06:39.304Z,85.99
2023-02-22T07:09:08.387Z,85.98
2023-02-22T09:54:25.786Z,85.95
2023-02-22T09:57:17.177Z,85.97
2023-02-22T09:59:49.101Z,86.20
2023-02-22T10:02:25.034Z,86.30
2023-02-22T10:05:00.923Z,85.87
2023-02-22T10:07:36.983Z,86.23
2023-02-22T10:10:07.309Z,86.15
2023-02-22T10:12:44.019Z,85.93
2023-02-22T10:15:35.761Z,86.09
2023-02-22T10:18:21.602Z,86.31
2023-02-22T10:20:57.217Z,85.79
2023-02-22T10:23:33.868Z,86.00
2023-02-22T10:26:16.297Z,85.97
2023-02-22T10:28:51.712Z,86.26
2023-02-22T10:31:24.598Z,86.28
2023-02-22T10:33:57.840Z,85.79
2023-02-22T10:36:27.365Z,85.66
2023-02-22T10:38:59.347Z,85.65
2023-02-22T10:41:32.050Z,86.18
2023-02-22T10:44:00.356Z,86.06
2023-02-22T10:46:30.273Z,85.91
2023-02-22T10:49:03.388Z,86.00
2023-02-22T10:51:31.473Z,85.83
2023-02-22T10:54:15.960Z,86.19
2023-02-22T10:56:52.207Z,85.98
2023-02-22T10:59:33.340Z,85.76
2023-02-22T11:02:02.528Z,85.62
2023-02-22T11:04:46.416Z,85.91
2023-02-22T11:07:23.092Z,85.53
2023-02-22T11:09:53.861Z,85.89
2023-02-22T11:12:28.662Z,85.46
2023-02-22T11:14:57.132Z,85.90
2023-02-22T11:17:31.990Z,85.66
2023-02-22T11:20:00.870Z,85.74
2023-02-22T11:22:32.275Z,85.37
2023-02-22T11:25:03.541Z,85.91
2023-02-22T11:27:38.249Z,85.45
2023-02-22T11:30:21.870Z,85.73
2023-02-22T11:32:53.662Z,85.66
2023-02-22T11:35:35.476Z,85.48
2023-02-22T11:38:18.007Z,85.36
2023-02-22T11:40:46.322Z,85.55
2023-02-22T11:43:19.061Z,85.56
2023-02-22T11:46:03.531Z,85.04
2023-02-22T11:48:36.654Z,85.03
2023-02-22T11:51:16.985Z,85.31
2023-02-22T11:54:01.254Z,85.81
2023-02-22T11:56:38.169Z,85.11
2023-02-22T11:59:21.630Z,85.41
2023-02-22T12:01:54.990Z,85.41
2023-02-22T12:04:52.630Z,85.21
2023-02-22T12:07:38.344Z,85.01
2023-02-22T12:10:21.099Z,85.20
2023-02-22T12:12:55.798Z,85.07
2023-02-22T12:15:32.987Z,85.29
2023-02-22T12:18:08.775Z,84.83
2023-02-22T12:20:40.768Z,85.13
2023-02-22T12:23:20.144Z,85.04
2023-02-22T12:26:02.834Z,84.98
2023-02-22T12:28:36.131Z,84.90
2023-02-22T12:31:21.314Z,84.74
2023-02-22T12:33:56.447Z,84.86
2023-02-22T12:36:32.763Z,84.94
2023-02-22T12:39:07.706Z,84.94
2023-02-22T12:41:41.345Z,84.79
2023-02-22T12:44:17.351Z,84.76
2023-02-22T12:46:50.312Z,84.92
2023-02-22T12:49:25.189Z,84.59
2023-02-22T12:52:01.479Z,84.67
2023-02-22T12:54:44.226Z,84.45
2023-02-22T12:57:21.031Z,84.48
2023-02-22T12:59:52.120Z,84.42
2023-02-22T13:02:26.774Z,84.47
2023-02-22T13:04:55.182Z,84.30
2023-02-22T13:07:41.089Z,84.29
2023-02-22T13:10:32.404Z,84.34
2023-02-22T13:13:10.040Z,84.23
2023-02-22T13:15:46.839Z,84.27
2023-02-22T13:18:26.013Z,84.28
2023-02-22T13:21:00.177Z,84.19
2023-02-22T13:23:40.010Z,84.03
2023-02-22T13:26:14.334Z,83.98
2023-02-22T13:28:48.048Z,84.00
2023-02-22T13:31:46.755Z,83.99
2023-02-22T13:34:34.546Z,83.97
2023-02-22T13:37:18.643Z,83.84
2023-02-22T13:40:13.686Z,83.80
2023-02-22T13:43:03.496Z,83.82
2023-02-22T13:46:12.481Z,83.76
2023-02-22T13:49:31.350Z,83.67
2023-02-22T13:52:03.661Z,83.56
2023-02-22T13:54:42.199Z,83.47
2023-02-22T13:57:20.735Z,83.51
2023-02-22T13:59:48.648Z,83.52
2023-02-22T14:02:59.845Z,83.42
2023-02-22T14:05:38.916Z,83.36
2023-02-22T14:08:09.296Z,83.19
2023-02-22T14:10:47.589Z,83.23
2023-02-22T14:13:17.066Z,83.27
2023-02-22T14:16:18.255Z,83.11
2023-02-22T14:18:49.330Z,83.04
2023-02-22T14:21:20.406Z,82.97
2023-02-22T14:23:51.271Z,82.95
2023-02-22T14:26:26.623Z,82.90
2023-02-22T14:28:57.537Z,82.91
2023-02-22T14:31:35.956Z,82.83
2023-02-22T14:34:10.475Z,82.88
2023-02-22T14:36:45.731Z,82.87
2023-02-22T14:39:27.006Z,82.74
2023-02-22T14:42:01.506Z,82.70
2023-02-22T14:44:35.876Z,82.68
2023-02-22T14:47:07.106Z,82.63
2023-02-22T14:49:40.089Z,82.56
2023-02-22T14:52:18.488Z,82.52
2023-02-22T14:54:59.311Z,82.48
2023-02-22T14:57:38.763Z,82.39
2023-02-22T15:00:19.767Z,82.34
2023-02-22T15:02:50.450Z,82.28
2023-02-22T15:05:20.802Z,82.41
2023-02-22T15:07:54.281Z,82.08
2023-02-22T15:10:27.525Z,82.29
2023-02-22T15:13:09.144Z,82.20
2023-02-22T15:15:39.268Z,82.26
2023-02-22T15:18:18.657Z,81.95
2023-02-22T15:20:48.301Z,82.04
2023-02-22T15:23:17.224Z,81.86
2023-02-22T15:25:50.761Z,81.98
2023-02-22T15:28:19.521Z,81.82
2023-02-22T15:30:47.527Z,81.92
2023-02-22T15:33:17.969Z,81.79
2023-02-22T15:35:46.135Z,81.56
2023-02-22T15:38:28.387Z,81.57
2023-02-22T15:41:08.361Z,81.58
2023-02-22T15:43:36.155Z,81.51
2023-02-22T15:46:12.516Z,81.70
2023-02-22T15:48:41.535Z,81.51
2023-02-22T15:51:13.755Z,81.39
2023-02-22T15:53:44.668Z,81.54
2023-02-22T15:56:17.310Z,81.38
2023-02-22T15:58:48.196Z,81.54
2023-02-22T16:01:19.826Z,81.38
2023-02-22T16:03:50.941Z,81.23
2023-02-22T16:06:29.686Z,81.00
2023-02-22T16:09:00.086Z,81.15
2023-02-22T16:11:33.086Z,81.13
2023-02-22T16:14:04.742Z,81.25
2023-02-22T16:16:34.275Z,81.03
2023-02-22T16:19:27.814Z,81.01
2023-02-22T16:21:58.388Z,80.90
2023-02-22T16:24:31.380Z,81.14
2023-02-22T16:27:18.876Z,80.90
2023-02-22T16:30:07.790Z,80.83
2023-02-22T16:32:38.015Z,81.25
2023-02-22T16:35:06.287Z,80.64
2023-02-22T16:37:34.128Z,80.68
2023-02-22T16:40:01.941Z,80.64
2023-02-22T16:42:31.497Z,80.68
2023-02-22T16:44:59.702Z,80.61
2023-02-22T16:47:27.789Z,80.70
2023-02-22T16:49:57.054Z,80.52
2023-02-22T16:52:25.033Z,80.66
2023-02-22T16:54:53.072Z,80.59
2023-02-22T16:57:23.510Z,80.67
2023-02-22T16:59:53.479Z,80.97
2023-02-22T17:02:21.392Z,80.83
2023-02-22T17:04:49.623Z,80.67
2023-02-22T17:07:20.472Z,80.26
2023-02-22T17:09:48.321Z,80.32
2023-02-22T17:12:16.194Z,80.46
2023-02-22T17:14:46.848Z,80.85
2023-02-22T17:17:16.653Z,80.59
2023-02-22T17:19:44.434Z,80.19
2023-02-22T17:22:19.077Z,80.34
2023-02-22T17:24:47.505Z,80.10
2023-02-22T17:27:15.551Z,80.10
2023-02-22T17:29:44.969Z,80.23
2023-02-22T17:32:13.812Z,79.97
2023-02-22T17:34:42.930Z,80.39
2023-02-22T17:37:11.148Z,80.17
2023-02-22T17:39:39.106Z,79.96
2023-02-22T17:42:06.900Z,80.11
2023-02-22T17:44:35.286Z,80.05
2023-02-22T17:47:03.166Z,80.00
2023-02-22T17:49:31.134Z,80.23
2023-02-22T17:52:02.681Z,80.52
2023-02-22T17:54:30.590Z,79.98
2023-02-22T17:56:58.523Z,80.22
2023-02-22T17:59:26.499Z,80.09
2023-02-22T18:01:54.575Z,80.34
2023-02-22T18:04:22.475Z,80.15
2023-02-22T18:06:51.661Z,79.96
2023-02-22T18:09:20.882Z,80.22
2023-02-22T18:11:48.727Z,80.37
2023-02-22T18:14:16.529Z,80.42
2023-02-22T18:16:46.809Z,80.43
2023-02-22T18:19:20.039Z,80.16
2023-02-22T18:21:49.842Z,80.02
2023-02-22T18:24:18.461Z,80.32
2023-02-22T18:26:47.786Z,80.01
2023-02-22T18:29:15.672Z,80.44
2023-02-22T18:31:45.326Z,80.23
2023-02-22T18:34:13.476Z,80.37
2023-02-22T18:36:41.911Z,80.16
2023-02-22T18:39:13.211Z,80.34
2023-02-22T18:41:41.138Z,80.30
2023-02-22T18:44:11.111Z,80.53
2023-02-22T18:46:39.009Z,80.13
2023-02-22T18:49:06.956Z,80.30
2023-02-22T18:51:35.295Z,80.04
2023-02-22T18:54:03.120Z,80.36
2023-02-22T18:56:31.142Z,80.19
2023-02-22T18:59:01.060Z,80.00
2023-02-22T19:01:31.521Z,80.14
2023-02-22T19:03:59.366Z,80.28
2023-02-22T19:06:27.357Z,80.24
2023-02-22T19:08:55.196Z,80.22
2023-02-22T19:11:25.035Z,80.18
2023-02-22T19:13:54.580Z,80.05
2023-02-22T19:16:24.813Z,80.26
2023-02-22T19:18:57.258Z,80.39
2023-02-22T19:21:26.262Z,80.49
2023-02-22T19:24:01.363Z,80.39
2023-02-22T19:26:30.079Z,80.56
2023-02-22T19:28:59.805Z,80.40
2023-02-22T19:31:31.007Z,80.39
2023-02-22T19:34:03.640Z,80.48
2023-02-22T19:36:31.634Z,80.39
2023-02-22T19:39:01.541Z,80.39
2023-02-22T19:41:29.981Z,80.32
2023-02-22T19:43:58.265Z,80.40
2023-02-22T19:46:26.060Z,80.33
2023-02-22T19:48:55.324Z,80.32
2023-02-22T19:51:27.941Z,80.32
2023-02-22T19:53:58.704Z,80.33
2023-02-22T19:56:27.579Z,80.25
2023-02-22T19:58:57.140Z,80.47
2023-02-22T20:01:26.949Z,80.56
2023-02-22T20:03:59.698Z,80.60
2023-02-22T20:06:31.419Z,80.38
2023-02-22T20:08:59.651Z,80.43
2023-02-22T20:11:28.251Z,80.31
2023-02-22T20:13:56.873Z,80.51
2023-02-22T20:16:25.239Z,80.52
2023-02-22T20:18:54.437Z,80.50
2023-02-22T20:21:26.857Z,80.53
2023-02-22T20:23:59.150Z,80.58
2023-02-22T20:26:29.615Z,80.54
2023-02-22T20:28:57.764Z,80.45
2023-02-22T20:31:26.000Z,80.57
2023-02-22T20:33:56.497Z,80.63
2023-02-22T20:36:25.112Z,80.60
2023-02-22T20:38:54.917Z,80.64
2023-02-22T20:41:26.648Z,80.61
2023-02-22T20:43:56.248Z,80.85
2023-02-22T20:46:25.698Z,80.54
2023-02-22T20:48:56.383Z,80.52
2023-02-22T20:51:24.425Z,80.76
2023-02-22T20:53:52.190Z,80.82
2023-02-22T20:56:22.257Z,80.80
2023-02-22T20:58:52.169Z,80.78
2023-02-22T21:01:22.480Z,80.68
2023-02-22T21:03:53.597Z,81.02
2023-02-22T21:06:23.027Z,80.89
2023-02-22T21:08:53.574Z,80.75
2023-02-22T21:11:22.734Z,80.88
2023-02-22T21:13:52.532Z,80.88
2023-02-22T21:16:22.208Z,80.99
2023-02-22T21:18:51.412Z,80.95
2023-02-22T21:21:20.260Z,80.98
2023-02-22T21:23:50.857Z,80.97
2023-02-22T21:26:23.395Z,80.77
2023-02-22T21:28:52.575Z,81.10
2023-02-22T21:31:22.108Z,81.06
2023-02-22T21:33:51.378Z,81.04
2023-02-22T21:36:20.474Z,80.82
2023-02-22T21:38:53.095Z,80.80
2023-02-22T21:41:28.882Z,81.29
2023-02-22T21:43:59.553Z,81.25
2023-02-22T21:46:29.995Z,80.86
2023-02-22T21:48:59.397Z,81.42
2023-02-22T21:51:31.463Z,80.90
2023-02-22T21:54:01.526Z,81.28
2023-02-22T21:56:32.346Z,81.35
2023-02-22T21:59:04.948Z,81.10
2023-02-22T22:01:35.300Z,81.18
2023-02-22T22:04:04.681Z,80.75
2023-02-22T22:06:35.623Z,81.15
2023-02-22T22:09:06.133Z,81.10
2023-02-22T22:11:33.924Z,80.96
2023-02-22T22:14:03.694Z,81.41
2023-02-22T22:16:33.031Z,81.28
2023-02-22T22:19:00.825Z,81.43
2023-02-22T22:21:28.997Z,81.06
2023-02-22T22:23:57.376Z,81.49
2023-02-22T22:26:27.304Z,81.14
2023-02-22T22:28:57.432Z,81.18
2023-02-22T22:31:28.389Z,81.15
2023-02-22T22:33:57.390Z,81.58
2023-02-22T22:36:27.365Z,81.67
2023-02-22T22:38:57.449Z,81.64
2023-02-22T22:41:27.962Z,82.02
2023-02-22T22:43:56.241Z,81.62
2023-02-22T22:46:24.364Z,81.39
2023-02-22T22:48:53.543Z,81.14
2023-02-22T22:51:22.267Z,81.07
2023-02-22T22:53:51.893Z,81.67
2023-02-22T22:56:21.575Z,81.77
2023-02-22T22:58:51.318Z,81.64
2023-02-22T23:01:26.695Z,81.49
2023-02-22T23:06:39.166Z,81.51
2023-02-22T23:09:11.212Z,82.20
2023-02-22T23:11:44.333Z,81.86
2023-02-22T23:14:13.732Z,81.31
2023-02-22T23:16:42.773Z,81.60
2023-02-22T23:19:11.004Z,81.28
2023-02-22T23:21:46.484Z,82.16
2023-02-22T23:24:16.308Z,81.63
2023-02-22T23:26:48.578Z,81.94
2023-02-22T23:29:17.372Z,82.21
2023-02-22T23:31:48.429Z,81.37
2023-02-22T23:34:16.966Z,82.04
2023-02-22T23:36:46.605Z,82.22
2023-02-22T23:39:16.273Z,81.67
2023-02-22T23:41:44.167Z,82.27
2023-02-22T23:44:17.341Z,82.08
2023-02-22T23:46:48.067Z,82.15
2023-02-22T23:49:20.663Z,82.22
2023-02-22T23:51:50.165Z,81.54
2023-02-22T23:54:21.055Z,81.85
2023-02-22T23:56:56.427Z,82.19
2023-02-22T23:59:25.682Z,81.52
